Time;durP1;ratioP1;P1;durP2;ratioP2;P2;SDS_P1;SDS_P2;PMS_P1;PMS_P2;Temp;Humidity;BMP_temperature;BMP_pressure;BME280_temperature;BME280_humidity;BME280_pressure;Samples;Min_cycle;Max_cycle;Signal;HPM_P1;HPM_P2
2022/03/30 00:01:29;;;;;;;64.68;34.10;;;10.80;99.90;;;;;;5089414;28;20023;-55
2022/03/30 00:03:55;;;;;;;69.50;34.83;;;10.90;99.90;;;;;;5089652;28;20564;-58
2022/03/30 00:06:21;;;;;;;70.05;36.03;;;10.90;99.90;;;;;;5090396;28;20099;-55
2022/03/30 00:08:46;;;;;;;73.43;35.90;;;10.90;99.90;;;;;;5089202;28;20113;-56
2022/03/30 00:11:12;;;;;;;65.50;34.83;;;10.90;99.90;;;;;;5089638;28;20028;-59
2022/03/30 00:13:39;;;;;;;70.47;34.22;;;10.90;99.90;;;;;;5086830;28;20028;-57
2022/03/30 00:16:06;;;;;;;71.43;36.33;;;10.90;99.90;;;;;;5090624;28;20121;-57
2022/03/30 00:18:33;;;;;;;67.57;34.45;;;10.90;99.90;;;;;;5088806;28;20085;-53
2022/03/30 00:20:59;;;;;;;76.15;36.75;;;10.90;99.90;;;;;;5089928;28;20020;-57
2022/03/30 00:23:24;;;;;;;75.75;36.85;;;10.90;99.90;;;;;;5088143;28;20024;-57
2022/03/30 00:25:50;;;;;;;79.10;38.58;;;10.90;99.90;;;;;;5089968;28;21325;-60
2022/03/30 00:28:16;;;;;;;73.70;35.17;;;10.90;99.90;;;;;;5087934;28;20031;-60
2022/03/30 00:30:42;;;;;;;78.60;35.28;;;10.80;99.90;;;;;;5089260;28;20434;-58
2022/03/30 00:33:08;;;;;;;73.15;35.47;;;10.90;99.90;;;;;;5090114;28;20073;-60
2022/03/30 00:35:34;;;;;;;73.38;36.25;;;10.90;99.90;;;;;;5087020;28;20024;-60
2022/03/30 00:37:59;;;;;;;67.13;33.60;;;10.80;99.90;;;;;;5089643;28;20043;-60
2022/03/30 00:40:25;;;;;;;67.97;33.85;;;10.90;99.90;;;;;;5088561;28;20414;-57
2022/03/30 00:42:51;;;;;;;67.32;32.45;;;10.90;99.90;;;;;;5089708;28;20024;-58
2022/03/30 00:45:21;;;;;;;66.53;34.10;;;10.90;99.90;;;;;;5086609;28;20040;-58
2022/03/30 00:47:47;;;;;;;73.63;33.95;;;10.80;99.90;;;;;;5089438;28;20508;-58
2022/03/30 00:50:18;;;;;;;66.88;33.85;;;10.90;99.90;;;;;;5086104;28;20161;-59
2022/03/30 00:52:45;;;;;;;70.28;34.60;;;10.90;99.90;;;;;;5088350;28;20121;-57
2022/03/30 00:55:13;;;;;;;63.53;33.72;;;10.90;99.90;;;;;;5089444;28;20053;-58
2022/03/30 00:57:39;;;;;;;73.10;35.75;;;10.80;99.90;;;;;;5087464;28;20044;-60
2022/03/30 01:00:08;;;;;;;68.57;35.60;;;10.70;99.90;;;;;;5088787;28;20028;-58
2022/03/30 01:02:37;;;;;;;82.13;37.50;;;10.70;99.90;;;;;;5087217;28;20481;-59
2022/03/30 01:05:03;;;;;;;74.38;35.55;;;10.70;99.90;;;;;;5085234;28;20100;-59
2022/03/30 01:07:29;;;;;;;69.35;33.83;;;10.70;99.90;;;;;;5088392;28;20028;-58
2022/03/30 01:09:55;;;;;;;67.18;32.97;;;10.70;99.90;;;;;;5087107;28;20545;-57
2022/03/30 01:12:21;;;;;;;71.07;33.55;;;10.70;99.90;;;;;;5086270;28;20032;-58
2022/03/30 01:14:47;;;;;;;67.63;33.25;;;10.70;99.90;;;;;;5088858;28;20363;-58
2022/03/30 01:17:13;;;;;;;65.35;33.50;;;10.70;99.90;;;;;;5088649;28;20445;-60
2022/03/30 01:19:38;;;;;;;63.38;32.03;;;10.60;99.90;;;;;;5088393;28;20394;-59
2022/03/30 01:22:07;;;;;;;67.60;34.33;;;10.70;99.90;;;;;;5085816;28;20100;-61
2022/03/30 01:24:33;;;;;;;63.75;33.67;;;10.70;99.90;;;;;;5087058;28;20020;-59
2022/03/30 01:26:59;;;;;;;66.78;33.25;;;10.60;99.90;;;;;;5087864;28;20606;-60
2022/03/30 01:32:25;;;;;;;67.53;33.10;;;10.60;99.90;;;;;;5089184;28;20513;-59
2022/03/30 01:34:51;;;;;;;69.13;35.33;;;10.60;99.90;;;;;;5088361;28;20032;-59
2022/03/30 01:37:17;;;;;;;70.43;33.88;;;10.60;99.90;;;;;;5088319;28;20020;-57
2022/03/30 01:39:43;;;;;;;65.50;32.53;;;10.50;99.90;;;;;;5087458;28;20028;-57
2022/03/30 01:42:09;;;;;;;68.10;35.03;;;10.50;99.90;;;;;;5088112;28;20078;-59
2022/03/30 01:44:36;;;;;;;64.60;34.20;;;10.50;99.90;;;;;;5085958;28;20500;-58
2022/03/30 01:47:02;;;;;;;65.28;32.92;;;10.50;99.90;;;;;;5087546;28;20038;-59
2022/03/30 01:49:28;;;;;;;66.95;31.90;;;10.40;99.90;;;;;;5086545;28;20028;-59
2022/03/30 01:51:55;;;;;;;67.85;34.55;;;10.40;99.90;;;;;;5087414;28;20118;-58
2022/03/30 01:54:23;;;;;;;69.53;34.53;;;10.30;99.90;;;;;;5087113;28;20062;-58
2022/03/30 01:56:51;;;;;;;71.75;35.15;;;10.20;99.90;;;;;;5086269;28;20035;-58
2022/03/30 01:59:18;;;;;;;78.45;36.50;;;10.20;99.90;;;;;;5088312;28;20020;-58
2022/03/30 02:01:44;;;;;;;72.53;35.83;;;10.20;99.90;;;;;;5087246;28;20071;-56
2022/03/30 02:04:09;;;;;;;73.15;36.95;;;10.10;99.90;;;;;;5088229;28;20056;-55
2022/03/30 02:06:37;;;;;;;74.82;34.03;;;10.00;99.90;;;;;;5088173;28;20487;-58
2022/03/30 02:09:04;;;;;;;73.20;37.28;;;9.90;99.90;;;;;;5087191;28;20023;-56
2022/03/30 02:11:30;;;;;;;71.72;34.58;;;9.90;99.90;;;;;;5087932;28;20092;-58
2022/03/30 02:13:56;;;;;;;73.05;35.83;;;9.90;99.90;;;;;;5087442;28;20103;-56
2022/03/30 02:16:23;;;;;;;77.95;35.70;;;10.00;99.90;;;;;;5088055;28;20047;-58
2022/03/30 02:18:49;;;;;;;68.55;33.17;;;10.00;99.90;;;;;;5087587;28;20080;-56
2022/03/30 02:21:17;;;;;;;78.15;35.88;;;9.90;99.90;;;;;;5086780;28;20032;-56
2022/03/30 02:23:45;;;;;;;72.80;34.88;;;9.90;99.90;;;;;;5086754;28;20760;-56
2022/03/30 02:26:14;;;;;;;71.90;35.13;;;10.00;99.90;;;;;;5085828;28;20028;-52
2022/03/30 02:28:41;;;;;;;71.55;33.40;;;10.00;99.90;;;;;;5087785;28;20202;-57
2022/03/30 02:31:07;;;;;;;69.15;34.92;;;9.90;99.90;;;;;;5087543;28;20168;-57
2022/03/30 02:33:33;;;;;;;74.10;34.80;;;9.90;99.90;;;;;;5087736;28;20076;-55
2022/03/30 02:35:58;;;;;;;78.05;35.35;;;9.90;99.90;;;;;;5088234;28;20107;-60
2022/03/30 02:38:24;;;;;;;71.55;34.45;;;9.80;99.90;;;;;;5086905;28;20370;-59
2022/03/30 02:40:49;;;;;;;73.03;34.72;;;9.90;99.90;;;;;;5087085;28;20024;-59
2022/03/30 02:43:19;;;;;;;72.15;35.70;;;9.80;99.90;;;;;;5087706;28;20028;-60
2022/03/30 02:45:46;;;;;;;69.47;35.08;;;9.80;99.90;;;;;;5086178;28;20398;-60
2022/03/30 02:48:23;;;;;;;74.05;34.45;;;9.80;99.90;;;;;;5087597;28;20035;-58
2022/03/30 02:50:55;;;;;;;72.00;32.75;;;9.80;99.90;;;;;;5087204;28;20063;-59
2022/03/30 02:53:20;;;;;;;69.45;34.30;;;9.80;99.90;;;;;;5087369;28;20032;-60
2022/03/30 02:55:46;;;;;;;81.40;34.38;;;9.80;99.90;;;;;;5087214;28;20020;-57
2022/03/30 02:58:12;;;;;;;71.82;35.13;;;9.70;99.90;;;;;;5087688;28;20020;-59
2022/03/30 03:00:39;;;;;;;73.55;34.40;;;9.60;99.90;;;;;;5088072;28;20149;-60
2022/03/30 03:03:05;;;;;;;75.22;36.60;;;9.60;99.90;;;;;;5085686;28;20036;-58
2022/03/30 03:05:34;;;;;;;76.97;35.30;;;9.60;99.90;;;;;;5088592;28;20039;-61
2022/03/30 03:08:05;;;;;;;76.88;36.47;;;9.60;99.90;;;;;;5086798;28;20575;-61
2022/03/30 03:10:32;;;;;;;76.45;36.30;;;9.50;99.90;;;;;;5086394;28;20485;-58
2022/03/30 03:12:58;;;;;;;86.85;39.17;;;9.50;99.90;;;;;;5087370;28;20024;-62
2022/03/30 03:15:24;;;;;;;75.82;37.78;;;9.50;99.90;;;;;;5087395;28;20020;-58
2022/03/30 03:17:50;;;;;;;77.72;36.15;;;9.40;99.90;;;;;;5088255;28;20125;-56
2022/03/30 03:20:16;;;;;;;70.60;35.35;;;9.40;99.90;;;;;;5087057;28;20473;-59
2022/03/30 03:22:42;;;;;;;74.40;34.60;;;9.30;99.90;;;;;;5087939;28;20031;-59
2022/03/30 03:25:09;;;;;;;77.28;38.50;;;9.20;99.90;;;;;;5086893;28;20032;-59
2022/03/30 03:27:35;;;;;;;78.10;35.80;;;9.30;99.90;;;;;;5087885;28;20036;-60
2022/03/30 03:30:01;;;;;;;76.45;36.47;;;9.30;99.90;;;;;;5090364;28;20027;-58
2022/03/30 03:32:27;;;;;;;75.80;36.25;;;9.30;99.90;;;;;;5091715;28;20477;-60
2022/03/30 03:34:52;;;;;;;79.65;37.47;;;9.20;99.90;;;;;;5091043;28;20032;-59
2022/03/30 03:37:18;;;;;;;80.32;36.92;;;9.10;99.90;;;;;;5091307;28;20042;-56
2022/03/30 03:39:45;;;;;;;77.32;36.22;;;9.10;99.90;;;;;;5091736;28;20035;-60
2022/03/30 03:42:10;;;;;;;80.68;37.55;;;9.10;99.90;;;;;;5090424;28;20089;-59
2022/03/30 03:44:36;;;;;;;75.53;36.72;;;9.10;99.90;;;;;;5091162;28;20436;-58
2022/03/30 03:47:02;;;;;;;84.28;39.60;;;9.20;99.90;;;;;;5089179;28;20558;-58
2022/03/30 03:49:27;;;;;;;80.63;37.35;;;9.20;99.90;;;;;;5091863;28;20032;-59
2022/03/30 03:51:53;;;;;;;85.07;38.90;;;9.10;99.90;;;;;;5089739;28;20036;-59
2022/03/30 03:54:19;;;;;;;83.55;38.95;;;9.00;99.90;;;;;;5090822;28;20085;-57
2022/03/30 03:56:44;;;;;;;85.35;39.83;;;8.90;99.90;;;;;;5090186;28;20423;-60
2022/03/30 03:59:10;;;;;;;81.10;39.53;;;8.80;99.90;;;;;;5090666;28;20107;-58
2022/03/30 04:01:36;;;;;;;80.30;38.50;;;8.80;99.90;;;;;;5090080;28;20026;-59
2022/03/30 04:04:02;;;;;;;74.43;37.25;;;8.90;99.90;;;;;;5090175;28;20024;-57
2022/03/30 04:06:29;;;;;;;71.82;34.03;;;9.00;99.90;;;;;;5088954;28;20019;-60
2022/03/30 04:08:54;;;;;;;84.90;37.60;;;9.10;99.90;;;;;;5089626;28;20032;-60
2022/03/30 04:11:20;;;;;;;84.55;37.97;;;9.00;99.90;;;;;;5089888;28;20085;-60
2022/03/30 04:13:46;;;;;;;82.88;38.97;;;9.00;99.90;;;;;;5090450;28;20130;-61
2022/03/30 04:16:12;;;;;;;92.93;39.85;;;8.90;99.90;;;;;;5089608;28;20027;-58
2022/03/30 04:18:38;;;;;;;92.22;40.42;;;8.80;99.90;;;;;;5091149;28;20045;-59
2022/03/30 04:21:03;;;;;;;88.88;38.42;;;8.70;99.90;;;;;;5090450;28;20055;-59
2022/03/30 04:23:29;;;;;;;82.00;37.78;;;8.70;99.90;;;;;;5088214;28;20039;-59
2022/03/30 04:25:54;;;;;;;94.25;42.88;;;8.70;99.90;;;;;;5090189;28;20075;-56
2022/03/30 04:28:20;;;;;;;89.63;39.83;;;8.60;99.90;;;;;;5088720;28;20031;-60
2022/03/30 04:30:45;;;;;;;83.60;39.50;;;8.60;99.90;;;;;;5087981;28;20044;-57
2022/03/30 04:33:11;;;;;;;91.30;39.90;;;8.50;99.90;;;;;;5090111;28;20512;-60
2022/03/30 04:35:37;;;;;;;86.47;40.78;;;8.40;99.90;;;;;;5089529;28;20051;-58
2022/03/30 04:38:03;;;;;;;88.53;40.67;;;8.30;99.90;;;;;;5089485;28;20147;-58
2022/03/30 04:40:29;;;;;;;84.47;38.42;;;8.40;99.90;;;;;;5087873;28;20055;-58
2022/03/30 04:42:55;;;;;;;90.40;39.83;;;8.30;99.90;;;;;;5089077;28;20075;-57
2022/03/30 04:45:21;;;;;;;83.00;39.83;;;8.30;99.90;;;;;;5088897;28;20599;-60
2022/03/30 04:47:48;;;;;;;94.10;42.15;;;8.30;99.90;;;;;;5088353;28;20032;-59
2022/03/30 04:50:14;;;;;;;95.97;43.22;;;8.20;99.90;;;;;;5089140;28;20021;-57
2022/03/30 04:52:41;;;;;;;88.18;39.72;;;8.20;99.90;;;;;;5086927;28;20060;-59
2022/03/30 04:55:08;;;;;;;91.78;39.35;;;8.10;99.90;;;;;;5073104;22;20092;-60
2022/03/30 04:57:34;;;;;;;93.75;40.90;;;8.10;99.90;;;;;;5108575;28;20024;-60
2022/03/30 04:59:59;;;;;;;95.35;42.45;;;8.10;99.90;;;;;;5107900;28;20352;-59
2022/03/30 05:02:26;;;;;;;88.05;41.42;;;8.20;99.90;;;;;;5108214;28;20035;-59
2022/03/30 05:04:52;;;;;;;86.03;40.72;;;8.20;99.90;;;;;;5104272;28;20502;-59
2022/03/30 05:07:18;;;;;;;82.20;39.45;;;8.20;99.90;;;;;;5100245;28;20125;-56
2022/03/30 05:09:44;;;;;;;85.32;41.10;;;8.30;99.90;;;;;;5099742;28;20028;-59
2022/03/30 05:12:10;;;;;;;87.38;41.05;;;8.40;99.90;;;;;;5102494;28;20165;-57
2022/03/30 05:14:36;;;;;;;80.93;40.47;;;8.40;99.90;;;;;;5100174;28;20127;-57
2022/03/30 05:17:02;;;;;;;85.38;40.30;;;8.40;99.90;;;;;;5100285;28;20109;-58
2022/03/30 05:19:28;;;;;;;83.47;37.55;;;8.40;99.90;;;;;;5098045;28;20023;-58
2022/03/30 05:21:53;;;;;;;84.32;39.28;;;8.40;99.90;;;;;;5105608;28;20047;-58
2022/03/30 05:24:19;;;;;;;89.93;40.95;;;8.50;99.90;;;;;;5112041;28;20034;-57
2022/03/30 05:26:45;;;;;;;88.97;41.10;;;8.50;99.90;;;;;;5107051;28;20031;-54
2022/03/30 05:29:11;;;;;;;80.43;38.40;;;8.50;99.90;;;;;;5110800;28;20051;-55
2022/03/30 05:31:37;;;;;;;84.80;39.45;;;8.50;99.90;;;;;;5112041;28;20024;-58
2022/03/30 05:34:03;;;;;;;88.80;39.35;;;8.50;99.90;;;;;;5104982;28;20054;-54
2022/03/30 05:36:29;;;;;;;85.07;39.85;;;8.50;99.90;;;;;;5107381;28;20045;-58
2022/03/30 05:38:54;;;;;;;86.30;40.63;;;8.50;99.90;;;;;;5107667;28;20031;-57
2022/03/30 05:41:20;;;;;;;85.45;38.25;;;8.50;99.90;;;;;;5112090;28;20039;-57
2022/03/30 05:43:46;;;;;;;87.25;39.50;;;8.60;99.90;;;;;;5110892;28;20179;-57
2022/03/30 05:46:12;;;;;;;80.60;36.90;;;8.70;99.90;;;;;;5111018;28;20050;-55
2022/03/30 05:48:37;;;;;;;81.70;36.50;;;8.80;99.90;;;;;;5110263;28;20373;-56
2022/03/30 05:51:03;;;;;;;81.22;39.70;;;8.80;99.90;;;;;;5100734;28;20036;-54
2022/03/30 05:53:29;;;;;;;81.57;38.42;;;8.80;99.90;;;;;;5112673;28;20036;-54
2022/03/30 05:55:55;;;;;;;84.85;40.55;;;8.70;99.90;;;;;;5112751;28;20047;-54
2022/03/30 05:58:21;;;;;;;94.65;40.30;;;8.60;99.90;;;;;;5109792;28;20020;-54
2022/03/30 06:00:46;;;;;;;91.70;39.13;;;8.60;99.90;;;;;;5106487;28;20595;-54
2022/03/30 06:03:12;;;;;;;86.63;37.53;;;8.70;99.90;;;;;;5107731;28;20385;-56
2022/03/30 06:05:38;;;;;;;71.85;36.60;;;8.80;99.90;;;;;;5106835;28;20023;-57
2022/03/30 06:08:06;;;;;;;76.88;35.20;;;8.80;99.90;;;;;;5105335;28;20015;-56
2022/03/30 06:10:32;;;;;;;80.55;37.70;;;8.80;99.90;;;;;;5108734;28;20024;-56
2022/03/30 06:12:58;;;;;;;92.15;37.90;;;8.80;99.90;;;;;;5107699;28;20405;-54
2022/03/30 06:15:24;;;;;;;82.88;38.17;;;8.80;99.90;;;;;;5106729;28;20023;-55
2022/03/30 06:17:51;;;;;;;85.28;38.65;;;8.80;99.90;;;;;;5107791;28;20214;-54
2022/03/30 06:20:17;;;;;;;81.65;36.78;;;8.90;99.90;;;;;;5111350;28;20028;-56
2022/03/30 06:22:43;;;;;;;82.55;37.97;;;8.80;99.90;;;;;;5105892;28;20027;-56
2022/03/30 06:25:10;;;;;;;75.97;38.67;;;8.80;99.90;;;;;;5109547;28;20024;-55
2022/03/30 06:27:37;;;;;;;81.45;38.30;;;8.80;99.90;;;;;;5104281;28;20038;-57
2022/03/30 06:30:08;;;;;;;80.30;37.40;;;8.80;99.90;;;;;;5110683;28;20032;-58
2022/03/30 06:32:35;;;;;;;88.50;37.78;;;8.80;99.90;;;;;;5104206;28;20126;-56
2022/03/30 06:35:02;;;;;;;80.20;37.28;;;8.80;99.90;;;;;;5104924;28;20505;-57
2022/03/30 06:37:27;;;;;;;78.20;35.13;;;8.70;99.90;;;;;;5092935;28;20096;-55
2022/03/30 06:39:53;;;;;;;81.22;36.50;;;8.70;99.90;;;;;;5104517;28;20031;-57
2022/03/30 06:42:19;;;;;;;84.18;36.92;;;8.80;99.90;;;;;;5110353;28;20076;-55
2022/03/30 06:44:44;;;;;;;79.38;37.83;;;8.80;99.90;;;;;;5110366;28;20094;-58
2022/03/30 06:47:10;;;;;;;86.75;38.33;;;8.70;99.90;;;;;;5108662;28;20023;-57
2022/03/30 06:49:37;;;;;;;73.25;36.70;;;8.80;99.90;;;;;;5108469;28;20063;-56
2022/03/30 06:52:07;;;;;;;74.38;36.03;;;8.80;99.90;;;;;;5110326;28;20039;-57
2022/03/30 06:54:34;;;;;;;90.18;38.05;;;8.80;99.90;;;;;;5108909;28;20031;-56
2022/03/30 06:57:00;;;;;;;87.90;37.78;;;8.80;99.90;;;;;;5107182;28;20050;-54
2022/03/30 06:59:26;;;;;;;79.13;36.13;;;8.90;99.90;;;;;;5106880;28;20020;-56
2022/03/30 07:01:54;;;;;;;86.22;38.38;;;8.90;99.90;;;;;;5097871;28;20119;-54
2022/03/30 07:04:20;;;;;;;90.30;36.78;;;9.00;99.90;;;;;;5106186;28;20024;-57
2022/03/30 07:12:14;;;;;;;91.95;36.35;;;9.20;99.90;;;;;;5109247;28;20099;-56
2022/03/30 07:14:40;;;;;;;89.70;39.05;;;9.20;99.90;;;;;;5110285;28;20015;-56
2022/03/30 07:17:06;;;;;;;82.28;37.40;;;9.30;99.90;;;;;;5107087;28;20031;-55
2022/03/30 07:19:31;;;;;;;82.38;36.33;;;9.40;99.90;;;;;;5106583;28;20023;-58
2022/03/30 07:21:57;;;;;;;87.80;36.85;;;9.40;99.90;;;;;;5111389;28;20051;-57
2022/03/30 07:24:22;;;;;;;76.30;34.95;;;9.50;99.90;;;;;;5109441;28;20070;-58
2022/03/30 07:26:48;;;;;;;82.00;35.95;;;9.50;99.90;;;;;;5110234;28;20393;-58
2022/03/30 07:29:13;;;;;;;87.20;36.60;;;9.50;99.90;;;;;;5109592;28;20024;-58
2022/03/30 07:31:39;;;;;;;80.85;36.25;;;9.60;99.90;;;;;;5107980;28;20171;-59
2022/03/30 07:34:05;;;;;;;77.05;36.00;;;9.60;99.90;;;;;;5109688;28;20031;-55
2022/03/30 07:36:30;;;;;;;76.40;34.97;;;9.70;99.90;;;;;;5108908;28;20035;-58
2022/03/30 07:38:56;;;;;;;81.22;36.05;;;9.70;99.90;;;;;;5110419;28;20031;-58
2022/03/30 07:41:22;;;;;;;79.45;34.40;;;9.70;99.90;;;;;;5110122;28;20031;-58
2022/03/30 07:43:48;;;;;;;76.70;35.95;;;9.80;99.90;;;;;;5109953;28;20549;-57
2022/03/30 07:46:14;;;;;;;79.00;36.40;;;9.70;99.90;;;;;;5108142;28;20038;-58
2022/03/30 07:48:40;;;;;;;77.90;35.53;;;9.60;99.90;;;;;;5105882;28;20084;-58
2022/03/30 07:51:06;;;;;;;70.88;35.65;;;9.60;99.90;;;;;;5109749;28;20424;-55
2022/03/30 07:53:32;;;;;;;82.80;36.05;;;9.60;99.90;;;;;;5103589;28;20086;-57
2022/03/30 07:55:58;;;;;;;79.25;36.50;;;9.70;99.90;;;;;;5106685;28;20034;-58
2022/03/30 07:58:25;;;;;;;90.85;37.85;;;9.80;99.90;;;;;;5109371;28;20031;-57
2022/03/30 08:00:51;;;;;;;81.53;36.63;;;9.80;99.90;;;;;;5104586;28;20047;-58
2022/03/30 08:03:17;;;;;;;88.28;34.75;;;9.80;99.90;;;;;;5099918;28;20452;-56
2022/03/30 08:05:43;;;;;;;78.78;35.22;;;9.80;99.90;;;;;;5107577;28;20024;-57
2022/03/30 08:08:08;;;;;;;74.75;35.97;;;9.90;99.90;;;;;;5099166;28;20128;-55
2022/03/30 08:10:35;;;;;;;75.40;33.95;;;9.90;99.90;;;;;;5108870;28;20027;-58
2022/03/30 08:13:02;;;;;;;75.35;36.78;;;10.00;99.90;;;;;;5106588;28;20072;-55
2022/03/30 08:15:28;;;;;;;73.38;34.80;;;10.00;99.90;;;;;;5109705;28;20062;-58
2022/03/30 08:17:54;;;;;;;80.47;38.78;;;10.10;99.90;;;;;;5106113;28;20031;-58
2022/03/30 08:23:06;;;;;;;86.05;35.67;;;10.00;99.90;;;;;;5111500;28;20502;-56
2022/03/30 08:25:32;;;;;;;75.10;35.20;;;9.90;99.90;;;;;;5106585;28;20024;-58
2022/03/30 08:27:58;;;;;;;72.32;33.42;;;9.90;99.90;;;;;;5112316;28;20439;-55
2022/03/30 08:30:24;;;;;;;68.80;32.88;;;9.90;99.90;;;;;;5109442;28;20040;-58
2022/03/30 08:32:50;;;;;;;84.50;34.05;;;10.00;99.90;;;;;;5112648;28;20038;-59
2022/03/30 08:35:16;;;;;;;78.25;34.80;;;10.10;99.90;;;;;;5113004;28;20034;-57
2022/03/30 08:37:41;;;;;;;78.10;34.20;;;10.00;99.90;;;;;;5111966;28;20084;-59
2022/03/30 08:40:08;;;;;;;74.63;33.45;;;10.00;99.90;;;;;;5109726;28;20072;-59
2022/03/30 08:42:34;;;;;;;71.53;32.05;;;10.10;99.90;;;;;;5105745;28;20052;-58
2022/03/30 08:45:02;;;;;;;67.88;30.58;;;10.20;99.90;;;;;;5105966;28;20132;-57
2022/03/30 08:47:28;;;;;;;71.10;33.10;;;10.30;99.90;;;;;;5109163;28;20030;-54
2022/03/30 08:49:53;;;;;;;68.82;32.25;;;10.40;99.90;;;;;;5111853;28;20020;-55
2022/03/30 08:52:19;;;;;;;66.43;30.17;;;10.60;99.90;;;;;;5111683;28;20031;-56
2022/03/30 08:54:47;;;;;;;64.22;28.75;;;10.80;99.90;;;;;;5109369;28;20115;-58
2022/03/30 08:57:13;;;;;;;62.38;27.02;;;10.90;99.90;;;;;;5112360;28;20019;-56
2022/03/30 08:59:39;;;;;;;57.97;27.42;;;11.00;99.90;;;;;;5113607;28;20011;-56
2022/03/30 09:02:07;;;;;;;60.28;27.35;;;11.00;99.90;;;;;;5110374;28;20076;-58
2022/03/30 09:04:33;;;;;;;60.40;25.55;;;11.00;99.90;;;;;;5108484;28;20051;-58
2022/03/30 09:06:59;;;;;;;58.28;26.70;;;11.10;99.90;;;;;;5109876;28;20453;-58
2022/03/30 09:09:33;;;;;;;46.90;21.92;;;11.30;99.90;;;;;;5106194;28;20020;-58
2022/03/30 09:12:01;;;;;;;55.78;24.65;;;11.40;99.90;;;;;;5105251;28;20076;-57
2022/03/30 09:14:30;;;;;;;58.90;23.23;;;11.50;99.90;;;;;;5103201;28;20019;-60
2022/03/30 09:17:02;;;;;;;60.97;25.30;;;11.60;99.90;;;;;;5106576;28;20078;-56
2022/03/30 09:19:29;;;;;;;56.88;25.20;;;11.80;99.90;;;;;;5110424;28;20088;-58
2022/03/30 09:21:57;;;;;;;63.97;28.08;;;11.70;99.90;;;;;;5106687;28;20023;-56
2022/03/30 09:24:29;;;;;;;57.53;28.85;;;11.70;99.90;;;;;;5109469;28;20023;-57
2022/03/30 09:26:57;;;;;;;53.90;26.70;;;11.50;99.90;;;;;;5108173;28;20058;-55
2022/03/30 09:29:25;;;;;;;61.85;27.73;;;11.50;99.90;;;;;;5109615;28;20393;-56
2022/03/30 09:31:52;;;;;;;58.55;27.90;;;11.60;99.90;;;;;;5112452;28;20027;-57
2022/03/30 09:34:19;;;;;;;56.80;27.30;;;11.60;99.90;;;;;;5112349;28;20621;-56
2022/03/30 09:36:45;;;;;;;50.45;24.98;;;11.70;99.90;;;;;;5110999;28;20438;-58
2022/03/30 09:39:34;;;;;;;58.22;25.27;;;11.80;99.90;;;;;;5102185;28;20030;-55
2022/03/30 09:42:02;;;;;;;49.55;23.33;;;12.00;99.90;;;;;;5104323;28;20019;-59
2022/03/30 09:44:29;;;;;;;43.15;20.08;;;12.10;99.90;;;;;;5106490;28;20076;-58
2022/03/30 09:47:07;;;;;;;54.80;24.65;;;12.30;99.90;;;;;;5102895;28;20016;-57
2022/03/30 09:49:54;;;;;;;46.83;20.58;;;12.20;99.90;;;;;;5107379;28;20027;-58
2022/03/30 09:52:22;;;;;;;40.67;19.35;;;12.10;99.90;;;;;;5102064;28;20024;-59
2022/03/30 09:54:49;;;;;;;37.58;16.77;;;12.30;99.90;;;;;;5099700;28;20036;-60
2022/03/30 09:57:37;;;;;;;31.67;14.50;;;12.30;99.90;;;;;;5106404;28;20024;-58
2022/03/30 10:00:14;;;;;;;34.53;16.25;;;12.30;99.90;;;;;;5111354;28;20106;-57
2022/03/30 10:02:45;;;;;;;36.00;16.05;;;12.40;99.90;;;;;;5112849;28;20494;-55
2022/03/30 10:05:13;;;;;;;41.47;18.77;;;12.50;99.90;;;;;;5109420;28;20119;-56
2022/03/30 10:07:40;;;;;;;36.22;17.38;;;12.40;99.90;;;;;;5106347;28;20046;-57
2022/03/30 10:10:09;;;;;;;41.70;18.90;;;12.40;99.90;;;;;;5108547;28;20020;-57
2022/03/30 10:12:35;;;;;;;33.88;16.40;;;12.60;99.90;;;;;;5102731;28;20023;-58
2022/03/30 10:15:02;;;;;;;32.78;15.75;;;12.70;99.90;;;;;;5099044;28;20118;-58
2022/03/30 10:17:29;;;;;;;38.10;16.23;;;12.80;99.90;;;;;;5103507;28;21216;-57
2022/03/30 10:19:57;;;;;;;35.35;15.10;;;13.00;99.90;;;;;;5106458;28;20020;-56
2022/03/30 10:23:01;;;;;;;35.67;15.10;;;13.00;99.90;;;;;;5107575;28;20020;-57
2022/03/30 10:25:36;;;;;;;38.95;15.70;;;13.10;99.90;;;;;;5103021;28;20027;-57
2022/03/30 10:28:18;;;;;;;36.40;17.25;;;13.30;99.90;;;;;;5104522;28;20020;-57
2022/03/30 10:30:44;;;;;;;43.30;17.55;;;13.20;99.90;;;;;;5107010;28;20035;-55
2022/03/30 10:33:12;;;;;;;45.00;20.92;;;13.30;99.90;;;;;;5110431;28;20036;-59
2022/03/30 10:35:50;;;;;;;39.65;19.38;;;13.40;99.90;;;;;;5106859;28;20028;-59
2022/03/30 10:38:16;;;;;;;39.58;17.98;;;13.30;99.90;;;;;;5108720;28;20020;-55
2022/03/30 10:40:43;;;;;;;38.22;18.02;;;13.60;99.90;;;;;;5110670;28;20020;-55
2022/03/30 10:43:23;;;;;;;43.35;20.02;;;14.10;99.90;;;;;;5111173;28;20084;-59
2022/03/30 10:45:57;;;;;;;38.95;19.58;;;14.20;99.90;;;;;;5110821;28;20110;-58
2022/03/30 10:48:36;;;;;;;41.13;19.85;;;13.80;99.90;;;;;;5110857;28;20035;-58
2022/03/30 10:51:10;;;;;;;44.95;21.20;;;13.60;99.90;;;;;;5107502;28;20028;-58
2022/03/30 10:53:47;;;;;;;41.17;20.30;;;13.70;99.90;;;;;;5105476;28;20430;-60
2022/03/30 10:56:15;;;;;;;53.67;21.67;;;13.90;99.90;;;;;;5113870;22;20529;-64
2022/03/30 10:58:52;;;;;;;48.67;21.95;;;14.20;99.90;;;;;;5083160;28;20850;-67
2022/03/30 11:01:27;;;;;;;41.92;20.58;;;14.10;99.90;;;;;;5088437;28;20028;-66
2022/03/30 11:04:13;;;;;;;43.00;21.55;;;14.30;99.90;;;;;;5084474;28;20020;-65
2022/03/30 11:06:42;;;;;;;48.20;23.25;;;14.70;99.90;;;;;;5086978;28;20092;-65
2022/03/30 11:09:08;;;;;;;48.63;22.30;;;14.80;99.90;;;;;;5083075;28;20379;-65
2022/03/30 11:11:59;;;;;;;52.03;23.27;;;14.60;99.90;;;;;;5081949;28;20025;-67
2022/03/30 11:14:34;;;;;;;46.45;22.77;;;14.30;99.90;;;;;;5077976;28;20040;-65
2022/03/30 11:17:12;;;;;;;54.30;21.23;;;14.40;99.90;;;;;;5083948;28;20038;-67
2022/03/30 11:19:47;;;;;;;51.90;22.38;;;14.60;99.90;;;;;;5085904;28;20084;-67
2022/03/30 11:22:21;;;;;;;;;;;15.10;99.90;;;;;;5088827;28;20070;-65
2022/03/30 11:25:07;;;;;;;45.25;20.70;;;15.00;99.90;;;;;;5088025;28;20433;-67
2022/03/30 11:27:34;;;;;;;51.20;22.08;;;14.90;99.90;;;;;;5088940;28;20059;-67
2022/03/30 11:30:17;;;;;;;39.33;19.98;;;15.00;99.90;;;;;;5088724;28;20032;-66
2022/03/30 11:33:24;;;;;;;46.60;22.10;;;15.30;99.90;;;;;;5087327;28;20032;-67
2022/03/30 11:35:51;;;;;;;37.15;19.65;;;15.10;99.90;;;;;;5080479;28;20028;-67
2022/03/30 11:38:23;;;;;;;51.55;23.35;;;15.00;99.90;;;;;;5081960;28;20028;-65
2022/03/30 11:40:57;;;;;;;47.92;20.92;;;14.90;99.90;;;;;;5083356;28;20016;-67
2022/03/30 11:43:23;;;;;;;42.72;20.33;;;15.00;99.90;;;;;;5083543;28;20020;-64
2022/03/30 11:45:50;;;;;;;43.75;18.70;;;14.90;99.90;;;;;;5087915;28;20047;-65
2022/03/30 11:48:16;;;;;;;37.53;19.67;;;14.80;99.90;;;;;;5082542;28;20039;-65
2022/03/30 11:50:56;;;;;;;43.65;20.83;;;14.90;99.90;;;;;;5088421;28;20032;-65
2022/03/30 11:53:25;;;;;;;39.50;20.45;;;14.90;99.90;;;;;;5082457;28;20035;-63
2022/03/30 11:55:57;;;;;;;35.22;19.48;;;14.70;99.90;;;;;;5089241;28;20113;-65
2022/03/30 11:58:24;;;;;;;46.58;21.60;;;14.70;99.90;;;;;;5088440;28;20058;-66
2022/03/30 12:00:52;;;;;;;37.00;19.38;;;14.90;99.90;;;;;;5080594;28;20367;-66
2022/03/30 12:03:18;;;;;;;42.38;19.85;;;15.10;99.90;;;;;;5090421;28;20028;-64
2022/03/30 12:05:44;;;;;;;41.03;19.42;;;15.20;99.90;;;;;;5092023;28;20036;-65
2022/03/30 12:08:09;;;;;;;35.45;18.33;;;14.90;99.90;;;;;;5086338;28;20036;-64
2022/03/30 12:10:35;;;;;;;37.28;18.20;;;14.70;99.90;;;;;;5091559;28;20027;-65
2022/03/30 12:13:01;;;;;;;41.13;18.95;;;14.50;99.90;;;;;;5089052;28;20032;-64
2022/03/30 12:15:27;;;;;;;36.92;18.00;;;14.20;99.90;;;;;;5089976;28;20382;-66
2022/03/30 12:17:55;;;;;;;37.83;18.17;;;14.10;99.90;;;;;;5088552;28;20501;-66
2022/03/30 12:20:33;;;;;;;37.90;19.10;;;14.30;99.90;;;;;;5081862;28;20802;-65
2022/03/30 12:23:10;;;;;;;32.95;17.52;;;14.80;99.90;;;;;;5091899;28;20058;-66
2022/03/30 12:25:40;;;;;;;36.53;17.67;;;15.10;99.90;;;;;;5092045;28;20463;-65
2022/03/30 12:28:06;;;;;;;35.75;17.25;;;15.20;99.90;;;;;;5091392;28;20024;-67
2022/03/30 12:30:38;;;;;;;38.03;17.80;;;15.20;99.90;;;;;;5092335;28;20367;-66
2022/03/30 12:33:04;;;;;;;34.00;17.20;;;15.10;99.90;;;;;;5091862;28;20020;-65
2022/03/30 12:35:33;;;;;;;35.13;17.05;;;14.90;99.90;;;;;;5089581;28;20470;-66
2022/03/30 12:38:07;;;;;;;37.58;18.77;;;14.70;99.90;;;;;;5091051;28;20020;-66
2022/03/30 12:40:36;;;;;;;38.42;19.35;;;14.60;99.90;;;;;;5087516;28;20081;-63
2022/03/30 12:43:02;;;;;;;39.42;18.48;;;14.90;99.90;;;;;;5086138;28;20101;-66
2022/03/30 12:45:27;;;;;;;39.03;19.38;;;15.00;99.90;;;;;;5089895;28;20063;-65
2022/03/30 12:47:55;;;;;;;38.45;18.95;;;15.10;99.90;;;;;;5085136;28;20498;-67